createdAt,value
2023-05-09T00:03:59.344Z,11.38
2023-05-09T00:08:03.278Z,11.38
2023-05-09T00:12:06.738Z,11.40
2023-05-09T00:16:10.476Z,11.39
2023-05-09T00:20:13.357Z,11.39
2023-05-09T00:24:17.437Z,11.40
2023-05-09T00:28:20.054Z,11.38
2023-05-09T00:32:22.761Z,11.30
2023-05-09T00:36:25.533Z,11.25
2023-05-09T00:40:29.566Z,11.19
2023-05-09T00:44:32.213Z,11.18
2023-05-09T00:48:34.851Z,11.14
2023-05-09T00:52:38.167Z,11.13
2023-05-09T00:56:42.269Z,11.15
2023-05-09T01:00:44.875Z,11.21
2023-05-09T01:04:48.110Z,11.26
2023-05-09T01:08:59.866Z,11.27
2023-05-09T01:13:07.290Z,11.28
2023-05-09T01:17:17.296Z,11.27
2023-05-09T01:21:25.427Z,11.26
2023-05-09T01:25:39.052Z,11.18
2023-05-09T01:29:45.991Z,11.14
2023-05-09T01:33:57.698Z,11.11
2023-05-09T01:38:00.616Z,11.00
2023-05-09T01:42:05.716Z,10.94
2023-05-09T01:46:10.921Z,10.98
2023-05-09T01:50:13.791Z,10.98
2023-05-09T01:54:17.949Z,11.02
2023-05-09T01:58:22.259Z,11.00
2023-05-09T02:02:27.084Z,10.97
2023-05-09T02:06:31.168Z,10.95
2023-05-09T02:10:35.189Z,10.92
2023-05-09T02:14:37.852Z,10.74
2023-05-09T02:18:41.769Z,10.73
2023-05-09T02:22:45.239Z,10.73
2023-05-09T02:26:48.038Z,10.79
2023-05-09T02:30:53.242Z,10.73
2023-05-09T02:34:59.161Z,10.74
2023-05-09T02:39:02.258Z,10.77
2023-05-09T02:43:05.070Z,10.76
2023-05-09T02:47:08.458Z,10.72
2023-05-09T02:51:12.408Z,10.53
2023-05-09T02:55:15.242Z,10.49
2023-05-09T02:59:19.940Z,10.35
2023-05-09T03:03:23.467Z,10.41
2023-05-09T03:07:27.458Z,10.27
2023-05-09T03:11:30.758Z,10.17
2023-05-09T03:15:33.342Z,10.20
2023-05-09T03:19:35.984Z,10.13
2023-05-09T03:23:40.337Z,10.04
2023-05-09T03:27:42.923Z,10.11
2023-05-09T03:31:46.170Z,10.10
2023-05-09T03:35:48.846Z,10.06
2023-05-09T03:39:52.789Z,10.08
2023-05-09T03:43:55.429Z,10.06
2023-05-09T03:47:58.068Z,9.96
2023-05-09T03:52:00.687Z,9.97
2023-05-09T03:56:04.673Z,9.89
2023-05-09T04:00:10.385Z,9.88
2023-05-09T04:04:13.361Z,9.85
2023-05-09T04:08:16.341Z,9.90
2023-05-09T04:12:20.284Z,9.86
2023-05-09T04:16:22.948Z,9.96
2023-05-09T04:20:25.586Z,10.02
2023-05-09T04:24:28.183Z,10.05
2023-05-09T04:28:32.432Z,10.08
2023-05-09T04:32:35.862Z,10.14
2023-05-09T04:36:38.563Z,10.23
2023-05-09T04:40:41.132Z,10.27
2023-05-09T04:44:45.188Z,10.29
2023-05-09T04:48:47.789Z,10.33
2023-05-09T04:52:50.406Z,10.42
2023-05-09T04:56:53.264Z,10.44
2023-05-09T05:01:00.060Z,10.48
2023-05-09T05:05:11.635Z,10.54
2023-05-09T05:09:15.007Z,10.56
2023-05-09T05:13:17.643Z,10.63
2023-05-09T05:17:21.940Z,10.64
2023-05-09T05:21:24.590Z,10.74
2023-05-09T05:25:27.447Z,10.82
2023-05-09T05:29:30.084Z,10.86
2023-05-09T05:33:34.064Z,10.85
2023-05-09T05:37:36.648Z,10.96
2023-05-09T05:41:39.267Z,11.11
2023-05-09T05:45:41.906Z,11.24
2023-05-09T05:49:46.602Z,11.25
2023-05-09T05:53:49.614Z,11.47
2023-05-09T05:57:52.649Z,11.54
2023-05-09T06:01:55.292Z,11.74
2023-05-09T06:05:59.310Z,11.86
2023-05-09T06:10:01.928Z,11.98
2023-05-09T06:14:04.597Z,12.10
2023-05-09T06:18:09.013Z,12.09
2023-05-09T06:22:13.038Z,12.20
2023-05-09T06:26:16.587Z,12.22
2023-05-09T06:30:26.200Z,12.15
2023-05-09T06:34:29.766Z,12.14
2023-05-09T06:38:35.596Z,12.25
2023-05-09T06:42:38.570Z,12.37
2023-05-09T06:46:41.679Z,12.83
2023-05-09T06:50:44.494Z,13.17
2023-05-09T06:54:48.528Z,13.28
2023-05-09T06:58:51.570Z,13.36
2023-05-09T07:02:54.201Z,13.49
2023-05-09T07:06:56.860Z,13.56
2023-05-09T07:11:00.817Z,13.62
2023-05-09T07:15:03.460Z,13.68
2023-05-09T07:19:06.133Z,13.82
2023-05-09T07:23:08.772Z,13.94
2023-05-09T07:27:12.712Z,14.07
2023-05-09T07:31:15.322Z,14.22
2023-05-09T07:35:18.544Z,14.11
2023-05-09T07:39:21.543Z,14.18
2023-05-09T07:43:25.521Z,14.33
2023-05-09T07:47:28.264Z,14.57
2023-05-09T07:51:32.090Z,14.64
2023-05-09T07:55:34.707Z,14.73
2023-05-09T07:59:38.691Z,15.01
2023-05-09T08:03:41.539Z,14.97
2023-05-09T08:07:44.535Z,15.03
2023-05-09T08:11:47.141Z,14.89
2023-05-09T08:15:51.235Z,15.21
2023-05-09T08:19:53.940Z,15.30
2023-05-09T08:23:56.972Z,15.10
2023-05-09T08:28:00.521Z,15.15
2023-05-09T08:32:05.544Z,15.49
2023-05-09T08:36:08.541Z,15.66
2023-05-09T08:40:11.797Z,15.80
2023-05-09T08:44:14.592Z,15.85
2023-05-09T08:48:19.250Z,15.75
2023-05-09T08:52:22.558Z,15.99
2023-05-09T08:56:26.541Z,16.09
2023-05-09T09:00:30.689Z,16.09
2023-05-09T09:04:34.689Z,16.27
2023-05-09T09:08:37.534Z,16.06
2023-05-09T09:12:41.773Z,16.28
2023-05-09T09:16:47.562Z,16.51
2023-05-09T09:20:56.534Z,16.65
2023-05-09T09:24:59.116Z,16.92
2023-05-09T09:29:01.909Z,16.62
2023-05-09T09:33:07.818Z,16.63
2023-05-09T09:37:23.507Z,16.77
2023-05-09T09:41:31.639Z,17.07
2023-05-09T09:45:34.300Z,17.40
2023-05-09T09:49:36.946Z,17.25
2023-05-09T09:53:44.888Z,17.49
2023-05-09T09:57:48.368Z,17.70
2023-05-09T10:01:56.011Z,17.72
2023-05-09T10:06:02.623Z,17.96
2023-05-09T10:10:07.727Z,18.10
2023-05-09T10:14:10.731Z,18.30
2023-05-09T10:18:19.787Z,18.38
2023-05-09T10:22:24.778Z,18.40
2023-05-09T10:26:36.550Z,18.52
2023-05-09T10:30:45.259Z,18.78
2023-05-09T10:34:52.384Z,18.72
2023-05-09T10:38:56.431Z,18.73
2023-05-09T10:43:00.412Z,18.79
2023-05-09T10:47:03.713Z,18.88
2023-05-09T10:51:08.482Z,18.55
2023-05-09T10:55:11.383Z,18.89
2023-05-09T10:59:41.295Z,19.35
2023-05-09T11:03:55.507Z,19.60
2023-05-09T11:08:19.150Z,19.81
2023-05-09T11:12:24.982Z,19.58
2023-05-09T11:16:29.028Z,19.88
2023-05-09T11:20:35.142Z,19.89
2023-05-09T11:24:39.479Z,19.83
2023-05-09T11:28:42.055Z,20.48
2023-05-09T11:32:48.039Z,20.71
2023-05-09T11:36:50.677Z,21.07
2023-05-09T11:40:56.014Z,21.10
2023-05-09T11:44:58.886Z,21.10
2023-05-09T11:49:04.447Z,20.56
2023-05-09T11:53:08.527Z,20.89
2023-05-09T11:57:11.694Z,20.85
2023-05-09T12:01:14.396Z,21.13
2023-05-09T12:05:20.175Z,21.05
2023-05-09T12:09:22.959Z,21.15
2023-05-09T12:13:25.576Z,21.32
2023-05-09T12:17:28.316Z,21.66
2023-05-09T12:21:33.101Z,21.62
2023-05-09T12:25:35.843Z,21.51
2023-05-09T12:29:40.317Z,21.69
2023-05-09T12:33:43.186Z,21.76
2023-05-09T12:37:58.885Z,21.98
2023-05-09T12:42:02.319Z,22.18
2023-05-09T12:46:05.652Z,22.53
2023-05-09T12:50:11.559Z,22.80
2023-05-09T12:54:20.454Z,22.89
2023-05-09T12:58:23.104Z,22.29
2023-05-09T13:02:27.439Z,21.97
2023-05-09T13:06:30.836Z,22.67
2023-05-09T13:10:34.888Z,23.18
2023-05-09T13:14:38.451Z,22.98
2023-05-09T13:18:41.046Z,23.26
2023-05-09T13:22:44.812Z,23.49
2023-05-09T13:26:48.730Z,23.50
2023-05-09T13:30:51.490Z,23.52
2023-05-09T13:34:54.246Z,23.42
2023-05-09T13:38:57.396Z,22.96
2023-05-09T13:43:01.365Z,22.98
2023-05-09T13:47:04.162Z,22.98
2023-05-09T13:51:07.840Z,23.39
2023-05-09T13:55:11.006Z,23.52
2023-05-09T13:59:15.018Z,23.39
2023-05-09T14:03:17.788Z,23.41
2023-05-09T14:07:20.457Z,23.64
2023-05-09T14:11:23.490Z,23.40
2023-05-09T14:15:27.495Z,23.15
2023-05-09T14:19:30.302Z,23.15
2023-05-09T14:23:32.954Z,23.02
2023-05-09T14:27:36.923Z,22.60
2023-05-09T14:31:41.031Z,22.94
2023-05-09T14:35:43.680Z,22.96
2023-05-09T14:39:46.837Z,23.24
2023-05-09T14:43:49.696Z,23.25
2023-05-09T14:47:53.735Z,23.03
2023-05-09T14:51:56.411Z,22.78
2023-05-09T14:55:59.379Z,23.16
2023-05-09T15:00:13.066Z,23.20
2023-05-09T15:04:28.179Z,22.95
2023-05-09T15:08:30.930Z,22.36
2023-05-09T15:12:33.548Z,22.58
2023-05-09T15:16:36.234Z,23.13
2023-05-09T15:20:40.446Z,22.76
2023-05-09T15:24:44.236Z,22.42
2023-05-09T15:28:46.870Z,22.09
2023-05-09T15:32:49.543Z,22.30
2023-05-09T15:36:53.506Z,22.46
2023-05-09T15:40:56.632Z,22.41
2023-05-09T15:44:59.223Z,21.98
2023-05-09T15:49:01.851Z,22.19
2023-05-09T15:53:06.423Z,22.40
2023-05-09T15:57:10.675Z,22.65
2023-05-09T16:01:14.533Z,22.41
2023-05-09T16:05:17.367Z,22.04
2023-05-09T16:09:22.342Z,21.50
2023-05-09T16:13:25.041Z,21.25
2023-05-09T16:17:27.843Z,21.72
2023-05-09T16:21:32.967Z,22.02
2023-05-09T16:25:37.058Z,22.03
2023-05-09T16:29:40.344Z,21.81
2023-05-09T16:33:43.935Z,21.14
2023-05-09T16:37:46.688Z,20.78
2023-05-09T16:41:50.782Z,20.88
2023-05-09T16:45:54.385Z,21.21
2023-05-09T16:49:56.995Z,21.48
2023-05-09T16:53:59.612Z,21.53
2023-05-09T16:58:03.677Z,21.46
2023-05-09T17:02:06.520Z,21.31
2023-05-09T17:06:09.328Z,21.01
2023-05-09T17:10:12.458Z,20.79
2023-05-09T17:14:16.469Z,20.60
2023-05-09T17:18:29.138Z,20.47
2023-05-09T17:22:39.344Z,20.13
2023-05-09T17:26:41.948Z,19.89
2023-05-09T17:30:46.266Z,19.74
2023-05-09T17:34:48.889Z,19.50
2023-05-09T17:38:51.470Z,19.26
2023-05-09T17:42:54.171Z,18.86
2023-05-09T17:46:58.894Z,18.84
2023-05-09T17:51:01.596Z,18.70
2023-05-09T17:55:05.097Z,18.59
2023-05-09T17:59:07.990Z,18.42
2023-05-09T18:03:12.122Z,18.22
2023-05-09T18:07:15.063Z,18.13
2023-05-09T18:11:24.513Z,18.26
2023-05-09T18:15:27.512Z,18.29
2023-05-09T18:19:31.570Z,18.22
2023-05-09T18:23:34.245Z,18.06
2023-05-09T18:27:36.849Z,17.89
2023-05-09T18:31:41.441Z,17.82
2023-05-09T18:35:45.501Z,17.71
2023-05-09T18:39:48.882Z,17.62
2023-05-09T18:43:51.515Z,17.42
2023-05-09T18:47:54.173Z,17.28
2023-05-09T18:52:00.113Z,16.95
2023-05-09T18:56:02.795Z,16.62
2023-05-09T19:00:06.372Z,16.54
2023-05-09T19:04:09.133Z,16.58
2023-05-09T19:08:13.077Z,16.59
2023-05-09T19:12:16.401Z,16.50
2023-05-09T19:16:21.666Z,16.40
2023-05-09T19:20:25.047Z,16.34
2023-05-09T19:24:29.059Z,16.27
2023-05-09T19:28:31.686Z,16.20
2023-05-09T19:32:34.309Z,16.14
2023-05-09T19:36:37.416Z,16.14
2023-05-09T19:40:42.151Z,16.13
2023-05-09T19:44:45.250Z,16.04
2023-05-09T19:48:47.846Z,15.96
2023-05-09T19:52:50.687Z,15.82
2023-05-09T19:56:54.663Z,15.65
2023-05-09T20:00:57.277Z,15.53
2023-05-09T20:05:00.384Z,15.49
2023-05-09T20:09:03.001Z,15.48
2023-05-09T20:13:06.989Z,15.26
2023-05-09T20:17:09.804Z,15.16
2023-05-09T20:21:13.275Z,14.86
2023-05-09T20:25:15.968Z,14.61
2023-05-09T20:29:20.005Z,14.43
2023-05-09T20:33:22.655Z,14.48
2023-05-09T20:37:25.259Z,14.47
2023-05-09T20:41:27.991Z,14.47
2023-05-09T20:45:32.129Z,14.55
2023-05-09T20:49:34.773Z,14.54
2023-05-09T20:53:37.766Z,14.54
2023-05-09T20:57:40.449Z,14.46
2023-05-09T21:01:44.561Z,14.38
2023-05-09T21:05:47.158Z,14.27
2023-05-09T21:09:50.763Z,14.14
2023-05-09T21:13:53.365Z,14.12
2023-05-09T21:17:57.414Z,14.07
2023-05-09T21:22:00.127Z,14.00
2023-05-09T21:26:03.254Z,13.97
2023-05-09T21:30:07.172Z,13.95
2023-05-09T21:34:11.110Z,13.98
2023-05-09T21:38:13.961Z,13.95
2023-05-09T21:42:16.581Z,13.88
2023-05-09T21:46:19.247Z,13.78
2023-05-09T21:50:23.536Z,13.71
2023-05-09T21:54:26.185Z,13.64
2023-05-09T21:58:28.812Z,13.64
2023-05-09T22:02:31.757Z,13.68
2023-05-09T22:06:35.784Z,13.70
2023-05-09T22:10:38.698Z,13.79
2023-05-09T22:14:52.527Z,13.86
2023-05-09T22:18:55.863Z,13.91
2023-05-09T22:22:59.798Z,13.92
2023-05-09T22:27:02.483Z,13.95
2023-05-09T22:31:06.516Z,13.88
2023-05-09T22:35:09.955Z,13.78
2023-05-09T22:39:14.129Z,13.44
2023-05-09T22:43:16.788Z,13.34
2023-05-09T22:47:19.399Z,13.37
2023-05-09T22:51:22.717Z,13.43
2023-05-09T22:55:26.675Z,13.49
2023-05-09T22:59:29.250Z,13.48
2023-05-09T23:03:31.970Z,13.45
2023-05-09T23:07:34.580Z,13.20
2023-05-09T23:11:38.573Z,12.93
2023-05-09T23:15:41.203Z,12.95
2023-05-09T23:19:43.831Z,12.85
2023-05-09T23:23:46.584Z,12.84
2023-05-09T23:27:50.626Z,12.89
2023-05-09T23:31:53.241Z,12.84
2023-05-09T23:35:56.058Z,12.86
2023-05-09T23:39:58.985Z,12.97
2023-05-09T23:44:03.451Z,13.09
2023-05-09T23:48:07.191Z,13.16
2023-05-09T23:52:09.940Z,13.19
2023-05-09T23:56:12.565Z,13.21
